Time;durP1;ratioP1;P1;durP2;ratioP2;P2;SDS_P1;SDS_P2;PMS_P1;PMS_P2;Temp;Humidity;BMP_temperature;BMP_pressure;BME280_temperature;BME280_humidity;BME280_pressure;Samples;Min_cycle;Max_cycle;Signal;HPM_P1;HPM_P2
2022/02/06 00:00:31;;;;;;;4.38;1.40;;;;;;;;;;5016637;28;20104;-77
2022/02/06 00:02:57;;;;;;;4.50;1.50;;;;;;;;;;5031743;28;20041;-77
2022/02/06 00:05:22;;;;;;;3.17;0.98;;;;;;;;;;5031504;28;20414;-77
2022/02/06 00:07:49;;;;;;;4.70;1.85;;;;;;;;;;5017730;28;20124;-78
2022/02/06 00:10:14;;;;;;;3.42;1.52;;;;;;;;;;5001921;28;20032;-77
2022/02/06 00:12:40;;;;;;;2.55;1.13;;;;;;;;;;5002348;28;20123;-77
2022/02/06 00:15:06;;;;;;;3.60;1.17;;;;;;;;;;4998791;28;20040;-78
2022/02/06 00:17:31;;;;;;;4.28;1.10;;;;;;;;;;5018675;28;20041;-78
2022/02/06 00:19:57;;;;;;;4.47;1.30;;;;;;;;;;5018465;28;20028;-78
2022/02/06 00:30:39;;;;;;;3.92;0.80;;;;;;;;;;5018891;28;20029;-77
2022/02/06 00:33:10;;;;;;;2.33;0.90;;;;;;;;;;5009956;28;20056;-77
2022/02/06 00:38:34;;;;;;;3.20;0.93;;;;;;;;;;5021131;28;20033;-77
2022/02/06 00:41:13;;;;;;;4.65;0.98;;;;;;;;;;5016539;28;20044;-77
2022/02/06 00:43:39;;;;;;;3.17;0.95;;;;;;;;;;5005771;28;20037;-78
2022/02/06 00:46:07;;;;;;;2.95;1.20;;;;;;;;;;5001601;28;20044;-77
2022/02/06 00:48:36;;;;;;;2.90;1.05;;;;;;;;;;4998293;28;20034;-77
2022/02/06 00:53:36;;;;;;;3.15;1.30;;;;;;;;;;5000723;28;20033;-77
2022/02/06 00:56:01;;;;;;;4.60;1.45;;;;;;;;;;4996668;28;20067;-77
2022/02/06 00:58:27;;;;;;;3.72;1.00;;;;;;;;;;5014673;28;20034;-77
2022/02/06 01:00:53;;;;;;;3.70;0.88;;;;;;;;;;5030909;28;20038;-77
2022/02/06 01:03:19;;;;;;;2.63;1.10;;;;;;;;;;5014156;28;20068;-77
2022/02/06 01:05:44;;;;;;;3.38;1.20;;;;;;;;;;5014161;28;20108;-77
2022/02/06 01:08:09;;;;;;;3.40;0.88;;;;;;;;;;5014390;28;20029;-77
2022/02/06 01:10:35;;;;;;;2.53;0.80;;;;;;;;;;4999975;28;20049;-77
2022/02/06 01:13:14;;;;;;;3.20;1.10;;;;;;;;;;4990051;28;20045;-77
2022/02/06 01:15:46;;;;;;;2.42;1.10;;;;;;;;;;4985612;28;20087;-77
2022/02/06 01:18:20;;;;;;;3.25;1.02;;;;;;;;;;4999737;28;20455;-77
2022/02/06 01:20:54;;;;;;;3.60;1.20;;;;;;;;;;4983716;28;20045;-77
2022/02/06 01:23:50;;;;;;;5.30;1.13;;;;;;;;;;5013605;28;20465;-77
2022/02/06 01:26:17;;;;;;;2.72;1.20;;;;;;;;;;5015979;28;20136;-77
2022/02/06 01:28:49;;;;;;;3.03;0.90;;;;;;;;;;5000996;28;20036;-77
2022/02/06 01:31:34;;;;;;;3.05;0.90;;;;;;;;;;5013198;28;20103;-77
2022/02/06 01:34:02;;;;;;;3.90;1.40;;;;;;;;;;5022587;28;20064;-77
2022/02/06 01:36:41;;;;;;;2.83;0.68;;;;;;;;;;5017679;28;20037;-77
2022/02/06 01:41:47;;;;;;;4.60;1.13;;;;;;;;;;5019963;28;20037;-77
2022/02/06 01:44:49;;;;;;;2.95;0.88;;;;;;;;;;5016380;28;20037;-77
2022/02/06 02:01:15;;;;;;;3.55;1.00;;;;;;;;;;5019596;28;20060;-77
2022/02/06 02:04:11;;;;;;;3.17;1.08;;;;;;;;;;5030476;28;20508;-77
2022/02/06 02:17:30;;;;;;;2.83;1.40;;;;;;;;;;5017971;28;20044;-77
2022/02/06 02:46:35;;;;;;;2.50;1.10;;;;;;;;;;5024542;28;20033;-77
2022/02/06 02:49:01;;;;;;;2.17;0.80;;;;;;;;;;5022829;28;20491;-77
2022/02/06 02:51:32;;;;;;;3.05;0.73;;;;;;;;;;4987685;28;20029;-77
2022/02/06 02:54:03;;;;;;;2.35;0.75;;;;;;;;;;5005501;28;20037;-77
2022/02/06 02:56:44;;;;;;;2.63;1.10;;;;;;;;;;5005273;28;20041;-78
2022/02/06 02:59:19;;;;;;;2.28;0.90;;;;;;;;;;5005209;28;20064;-78
2022/02/06 03:01:56;;;;;;;3.58;0.85;;;;;;;;;;4987125;28;20112;-77
2022/02/06 03:04:21;;;;;;;3.72;1.02;;;;;;;;;;5002495;28;20049;-78
2022/02/06 03:06:47;;;;;;;2.15;0.73;;;;;;;;;;4984034;28;20045;-78
2022/02/06 03:09:13;;;;;;;2.03;0.95;;;;;;;;;;4999651;28;20029;-77
2022/02/06 03:11:38;;;;;;;3.22;1.00;;;;;;;;;;5000293;28;20045;-77
2022/02/06 03:16:36;;;;;;;2.30;0.73;;;;;;;;;;5001070;28;20038;-78
2022/02/06 03:21:29;;;;;;;4.13;0.95;;;;;;;;;;5016501;28;20105;-77
2022/02/06 03:23:58;;;;;;;2.50;1.30;;;;;;;;;;5019730;28;20083;-77
2022/02/06 03:26:24;;;;;;;2.20;0.80;;;;;;;;;;4987621;28;20037;-77
2022/02/06 03:28:50;;;;;;;2.78;1.20;;;;;;;;;;5003139;28;20029;-77
2022/02/06 03:31:15;;;;;;;2.80;1.20;;;;;;;;;;5019343;28;20075;-78
2022/02/06 03:33:41;;;;;;;2.35;0.63;;;;;;;;;;5018977;28;20045;-77
2022/02/06 03:36:07;;;;;;;2.72;1.02;;;;;;;;;;5001939;28;20044;-77
2022/02/06 03:38:32;;;;;;;2.33;0.80;;;;;;;;;;5016016;28;20431;-77
2022/02/06 03:41:03;;;;;;;3.58;1.30;;;;;;;;;;5018601;28;20044;-77
2022/02/06 03:43:46;;;;;;;2.55;0.93;;;;;;;;;;5020643;28;20116;-78
2022/02/06 03:46:21;;;;;;;2.58;0.90;;;;;;;;;;5013232;28;20098;-77
2022/02/06 03:48:52;;;;;;;2.65;0.90;;;;;;;;;;5025233;28;20112;-77
2022/02/06 03:51:23;;;;;;;3.63;1.00;;;;;;;;;;5020861;28;20060;-77
2022/02/06 03:53:51;;;;;;;4.07;1.03;;;;;;;;;;5004400;28;20029;-77
2022/02/06 03:56:18;;;;;;;2.30;0.70;;;;;;;;;;5019061;28;20286;-78
2022/02/06 03:58:44;;;;;;;2.58;1.13;;;;;;;;;;5036053;28;20052;-77
2022/02/06 04:01:09;;;;;;;3.00;1.42;;;;;;;;;;5034872;28;20033;-77
2022/02/06 04:03:35;;;;;;;2.67;0.80;;;;;;;;;;5018514;28;20037;-77
2022/02/06 04:06:00;;;;;;;3.85;1.20;;;;;;;;;;5018666;28;20055;-77
2022/02/06 04:08:28;;;;;;;2.05;0.60;;;;;;;;;;5018945;28;20083;-78
2022/02/06 04:10:53;;;;;;;1.98;0.82;;;;;;;;;;5009729;28;20033;-77
2022/02/06 04:13:23;;;;;;;4.47;1.00;;;;;;;;;;5015527;28;20124;-77
2022/02/06 04:15:54;;;;;;;3.13;1.00;;;;;;;;;;5047768;28;20037;-78
2022/02/06 04:18:28;;;;;;;2.35;0.98;;;;;;;;;;5030572;28;20091;-77
2022/02/06 04:20:54;;;;;;;2.33;0.77;;;;;;;;;;5015293;28;20124;-77
2022/02/06 04:23:19;;;;;;;5.70;1.80;;;;;;;;;;5014829;28;20116;-77
2022/02/06 04:25:45;;;;;;;2.22;0.73;;;;;;;;;;5031043;28;20412;-78
2022/02/06 04:28:10;;;;;;;3.65;1.17;;;;;;;;;;5031211;28;20393;-78
2022/02/06 04:30:36;;;;;;;2.33;0.63;;;;;;;;;;5031613;28;20038;-78
2022/02/06 04:33:05;;;;;;;3.40;1.17;;;;;;;;;;5031003;28;20037;-78
2022/02/06 04:35:34;;;;;;;2.83;0.98;;;;;;;;;;4992141;28;20040;-78
2022/02/06 04:41:16;;;;;;;3.47;0.90;;;;;;;;;;4999713;28;20046;-79
2022/02/06 05:21:35;;;;;;;2.33;0.85;;;;;;;;;;5031061;28;20096;-78
2022/02/06 05:33:58;;;;;;;3.22;1.25;;;;;;;;;;5030255;28;20044;-78
2022/02/06 05:36:24;;;;;;;4.18;1.02;;;;;;;;;;5030185;28;20048;-79
2022/02/06 05:38:49;;;;;;;2.40;0.68;;;;;;;;;;5030073;28;20496;-78
2022/02/06 05:41:15;;;;;;;3.03;0.75;;;;;;;;;;5013529;28;20044;-78
2022/02/06 05:43:40;;;;;;;1.80;0.60;;;;;;;;;;5029691;28;20104;-79
2022/02/06 05:46:06;;;;;;;2.50;1.02;;;;;;;;;;5013086;28;20052;-78
2022/02/06 05:48:31;;;;;;;2.85;0.80;;;;;;;;;;5000244;28;20409;-78
2022/02/06 05:50:57;;;;;;;3.35;0.77;;;;;;;;;;5000887;28;20037;-78
2022/02/06 05:53:23;;;;;;;1.98;0.68;;;;;;;;;;5017499;28;20044;-78
2022/02/06 05:55:48;;;;;;;2.25;0.60;;;;;;;;;;5000789;28;20064;-79
2022/02/06 05:58:13;;;;;;;2.85;0.60;;;;;;;;;;5017007;28;20048;-76
2022/02/06 06:00:39;;;;;;;1.92;0.70;;;;;;;;;;5000759;28;20049;-76
2022/02/06 06:03:06;;;;;;;1.98;0.70;;;;;;;;;;4974715;28;20055;-76
2022/02/06 06:05:31;;;;;;;4.03;0.82;;;;;;;;;;4997038;28;20092;-76
2022/02/06 06:07:57;;;;;;;3.10;0.75;;;;;;;;;;5013723;28;20038;-76
2022/02/06 06:10:22;;;;;;;2.53;0.68;;;;;;;;;;5029646;28;20037;-76
2022/02/06 06:12:48;;;;;;;3.05;0.88;;;;;;;;;;5029065;28;20455;-76
2022/02/06 06:15:13;;;;;;;2.00;0.70;;;;;;;;;;4981177;28;20046;-76
2022/02/06 06:17:39;;;;;;;1.75;0.65;;;;;;;;;;4981224;28;20042;-76
2022/02/06 06:20:09;;;;;;;1.92;0.93;;;;;;;;;;4981159;28;20038;-76
2022/02/06 06:22:34;;;;;;;2.40;0.65;;;;;;;;;;5001338;28;20499;-76
2022/02/06 06:25:02;;;;;;;2.03;0.50;;;;;;;;;;4997108;28;20041;-76
2022/02/06 06:27:28;;;;;;;2.13;0.60;;;;;;;;;;5014053;28;20034;-76
2022/02/06 06:29:53;;;;;;;3.28;0.88;;;;;;;;;;4997673;28;20034;-76
2022/02/06 06:32:19;;;;;;;1.50;0.70;;;;;;;;;;4997113;28;20104;-77
2022/02/06 06:34:44;;;;;;;1.48;0.47;;;;;;;;;;5012969;28;20037;-77
2022/02/06 06:37:10;;;;;;;1.75;1.02;;;;;;;;;;4993404;28;20038;-77
2022/02/06 06:39:40;;;;;;;3.05;1.10;;;;;;;;;;4996967;28;20039;-77
2022/02/06 06:42:06;;;;;;;3.45;0.80;;;;;;;;;;5005065;28;20048;-76
2022/02/06 06:44:32;;;;;;;3.15;0.65;;;;;;;;;;4996993;28;20116;-76
2022/02/06 06:46:58;;;;;;;1.52;0.65;;;;;;;;;;5007921;28;20496;-76
2022/02/06 06:49:23;;;;;;;3.35;1.20;;;;;;;;;;5010432;28;20120;-76
2022/02/06 06:51:49;;;;;;;3.08;0.98;;;;;;;;;;5001318;28;20033;-76
2022/02/06 06:54:19;;;;;;;2.10;0.50;;;;;;;;;;5019864;28;20116;-76
2022/02/06 06:56:53;;;;;;;2.42;0.63;;;;;;;;;;5007846;28;20032;-76
2022/02/06 07:00:23;;;;;;;1.95;0.60;;;;;;;;;;5024449;28;20494;-77
2022/02/06 07:02:28;;;;;;;2.55;0.80;;;;;;;;;;5034824;28;20045;-76
2022/02/06 07:04:54;;;;;;;3.60;0.63;;;;;;;;;;5026449;28;20030;-77
2022/02/06 07:07:24;;;;;;;1.55;0.47;;;;;;;;;;4984345;28;20030;-76
2022/02/06 07:09:49;;;;;;;1.60;0.52;;;;;;;;;;5000062;28;20030;-77
2022/02/06 07:12:15;;;;;;;1.63;0.70;;;;;;;;;;4999854;28;20041;-77
2022/02/06 07:14:44;;;;;;;2.22;0.70;;;;;;;;;;5000133;28;20033;-77
2022/02/06 07:17:09;;;;;;;2.10;0.70;;;;;;;;;;4999405;28;20052;-77
2022/02/06 07:19:35;;;;;;;1.60;0.75;;;;;;;;;;5016734;28;20499;-77
2022/02/06 07:22:00;;;;;;;2.33;0.63;;;;;;;;;;5016518;28;20041;-76
2022/02/06 07:24:27;;;;;;;5.20;0.85;;;;;;;;;;5016301;28;20089;-76
2022/02/06 07:26:57;;;;;;;4.78;0.75;;;;;;;;;;5016443;28;20044;-75
2022/02/06 07:29:23;;;;;;;5.15;1.17;;;;;;;;;;5002920;28;20060;-78
2022/02/06 07:31:50;;;;;;;2.95;0.50;;;;;;;;;;5002971;28;20040;-78
2022/02/06 07:34:16;;;;;;;1.50;0.47;;;;;;;;;;4985260;28;20075;-76
2022/02/06 07:36:41;;;;;;;1.95;0.68;;;;;;;;;;5019655;28;20458;-77
2022/02/06 07:39:07;;;;;;;3.17;0.60;;;;;;;;;;4988036;28;20045;-77
2022/02/06 07:41:33;;;;;;;2.38;0.50;;;;;;;;;;5012220;28;20045;-76
2022/02/06 07:43:58;;;;;;;2.00;0.55;;;;;;;;;;5020973;28;20052;-77
2022/02/06 07:46:30;;;;;;;1.60;0.50;;;;;;;;;;5005064;28;20081;-77
2022/02/06 07:49:00;;;;;;;3.67;0.70;;;;;;;;;;5008448;28;20044;-76
2022/02/06 07:51:26;;;;;;;0.82;0.28;;;;;;;;;;4991121;28;20391;-77
2022/02/06 07:53:51;;;;;;;2.22;0.50;;;;;;;;;;5021419;28;20124;-77
2022/02/06 07:56:17;;;;;;;1.63;0.45;;;;;;;;;;5007523;28;20036;-77
2022/02/06 07:58:42;;;;;;;1.65;0.55;;;;;;;;;;5022203;28;20048;-77
2022/02/06 08:01:08;;;;;;;2.90;0.68;;;;;;;;;;5022329;28;20083;-77
2022/02/06 08:03:33;;;;;;;1.52;0.50;;;;;;;;;;5006686;28;20049;-77
2022/02/06 08:05:59;;;;;;;1.98;0.40;;;;;;;;;;5000080;28;20396;-77
2022/02/06 08:08:24;;;;;;;1.75;0.70;;;;;;;;;;5008900;28;20037;-76
2022/02/06 08:10:50;;;;;;;4.55;0.75;;;;;;;;;;5002280;28;20040;-77
2022/02/06 08:13:39;;;;;;;2.63;0.60;;;;;;;;;;4984610;28;20076;-78
2022/02/06 08:16:06;;;;;;;2.35;0.93;;;;;;;;;;5012008;28;20029;-79
2022/02/06 08:18:31;;;;;;;4.35;0.60;;;;;;;;;;5017823;28;20045;-78
2022/02/06 08:20:57;;;;;;;2.58;0.40;;;;;;;;;;5002466;28;20043;-79
2022/02/06 08:23:22;;;;;;;5.80;0.85;;;;;;;;;;5018070;28;20064;-78
2022/02/06 08:25:48;;;;;;;3.97;0.77;;;;;;;;;;5001056;28;20040;-79
2022/02/06 08:28:15;;;;;;;4.43;0.80;;;;;;;;;;5002810;28;20041;-78
2022/02/06 08:30:42;;;;;;;6.10;1.10;;;;;;;;;;5002540;28;20037;-78
2022/02/06 08:33:07;;;;;;;7.65;1.40;;;;;;;;;;4985843;28;20033;-78
2022/02/06 08:35:33;;;;;;;10.68;1.95;;;;;;;;;;4988766;28;20040;-79
2022/02/06 08:37:58;;;;;;;7.18;0.93;;;;;;;;;;5019307;28;20097;-79
2022/02/06 08:40:23;;;;;;;9.65;1.40;;;;;;;;;;4997452;28;20034;-79
2022/02/06 08:42:49;;;;;;;11.20;1.67;;;;;;;;;;5014813;28;20411;-79
2022/02/06 08:45:16;;;;;;;6.57;1.45;;;;;;;;;;5001788;28;20491;-79
2022/02/06 08:47:46;;;;;;;7.82;1.10;;;;;;;;;;5001775;28;20029;-79
2022/02/06 08:50:12;;;;;;;11.68;1.77;;;;;;;;;;4975924;28;20076;-79
2022/02/06 08:52:37;;;;;;;5.38;0.90;;;;;;;;;;4990108;28;20484;-79
2022/02/06 08:55:05;;;;;;;12.85;1.45;;;;;;;;;;5016870;28;20065;-78
2022/02/06 08:57:30;;;;;;;5.85;1.05;;;;;;;;;;4999600;28;20037;-78
2022/02/06 08:59:56;;;;;;;8.63;1.65;;;;;;;;;;5014572;28;20061;-79
2022/02/06 09:02:22;;;;;;;7.57;1.10;;;;;;;;;;4993581;28;20136;-79
2022/02/06 09:04:47;;;;;;;6.93;1.00;;;;;;;;;;5000761;28;20067;-79
2022/02/06 09:07:13;;;;;;;9.07;1.15;;;;;;;;;;5017557;28;20033;-79
2022/02/06 09:09:47;;;;;;;5.30;1.25;;;;;;;;;;4998405;28;20040;-79
2022/02/06 09:12:13;;;;;;;5.30;0.77;;;;;;;;;;5014319;28;20045;-80
2022/02/06 09:14:39;;;;;;;7.25;1.00;;;;;;;;;;4997861;28;20037;-79
2022/02/06 09:17:04;;;;;;;3.97;0.80;;;;;;;;;;5014215;28;20037;-79
2022/02/06 09:19:30;;;;;;;5.70;0.90;;;;;;;;;;5012694;28;20041;-79
2022/02/06 09:21:57;;;;;;;7.07;0.90;;;;;;;;;;5013834;28;20037;-79
2022/02/06 09:24:23;;;;;;;7.60;2.05;;;;;;;;;;4998043;28;20547;-79
2022/02/06 09:26:49;;;;;;;3.38;0.93;;;;;;;;;;5014628;28;20040;-80
2022/02/06 09:29:14;;;;;;;8.55;1.10;;;;;;;;;;5014203;28;20030;-79
2022/02/06 09:31:41;;;;;;;4.63;0.77;;;;;;;;;;4998057;28;20377;-79
2022/02/06 09:36:34;;;;;;;5.55;1.17;;;;;;;;;;5013252;28;20072;-79
2022/02/06 09:39:00;;;;;;;5.53;0.98;;;;;;;;;;5000523;28;20036;-79
2022/02/06 09:41:25;;;;;;;5.88;0.75;;;;;;;;;;4971418;28;20041;-79
2022/02/06 09:43:51;;;;;;;6.15;1.30;;;;;;;;;;5000872;28;20041;-80
2022/02/06 09:46:17;;;;;;;6.85;2.35;;;;;;;;;;5000863;28;20037;-80
2022/02/06 09:48:42;;;;;;;5.95;1.85;;;;;;;;;;4983488;28;20419;-79
2022/02/06 09:51:09;;;;;;;9.50;1.77;;;;;;;;;;5000322;28;20033;-80
2022/02/06 09:53:34;;;;;;;6.90;1.63;;;;;;;;;;4984028;28;20083;-79
2022/02/06 09:56:08;;;;;;;6.22;1.80;;;;;;;;;;5016618;28;20430;-80
2022/02/06 10:01:03;;;;;;;5.70;1.50;;;;;;;;;;4997924;28;20492;-80
2022/02/06 10:03:28;;;;;;;4.43;1.30;;;;;;;;;;4997062;28;20034;-80
2022/02/06 10:05:54;;;;;;;6.85;1.52;;;;;;;;;;4984261;28;20480;-80
2022/02/06 10:08:30;;;;;;;4.57;1.58;;;;;;;;;;4988319;28;20052;-80
2022/02/06 10:10:58;;;;;;;2.65;0.95;;;;;;;;;;5003585;28;20041;-81
2022/02/06 10:13:24;;;;;;;12.57;2.15;;;;;;;;;;4996775;28;20484;-80
2022/02/06 10:15:49;;;;;;;4.13;1.60;;;;;;;;;;4987982;28;20053;-80
2022/02/06 10:18:15;;;;;;;3.85;1.00;;;;;;;;;;5016319;28;20044;-79
2022/02/06 10:20:43;;;;;;;3.45;1.20;;;;;;;;;;5008545;28;20483;-79
2022/02/06 10:23:20;;;;;;;5.45;1.30;;;;;;;;;;4985062;28;20053;-80
2022/02/06 10:25:48;;;;;;;4.82;1.10;;;;;;;;;;5002932;28;20029;-79
2022/02/06 10:30:57;;;;;;;5.90;1.30;;;;;;;;;;5022395;28;20040;-79
2022/02/06 10:33:23;;;;;;;4.28;1.38;;;;;;;;;;5038285;28;20032;-79
2022/02/06 10:35:50;;;;;;;4.20;1.02;;;;;;;;;;5036917;28;20244;-79
2022/02/06 10:38:20;;;;;;;4.72;1.42;;;;;;;;;;5038443;28;20031;-79
2022/02/06 10:41:09;;;;;;;4.10;1.38;;;;;;;;;;5020184;28;20047;-79
2022/02/06 10:43:35;;;;;;;3.15;0.95;;;;;;;;;;5020189;28;20044;-79
2022/02/06 10:46:08;;;;;;;6.75;1.10;;;;;;;;;;5000566;28;20041;-79
2022/02/06 10:48:33;;;;;;;2.70;1.08;;;;;;;;;;5029496;28;20033;-80
2022/02/06 10:50:59;;;;;;;4.95;0.90;;;;;;;;;;5023405;28;20078;-79
2022/02/06 10:53:25;;;;;;;3.28;0.98;;;;;;;;;;5023413;28;20036;-80
2022/02/06 10:55:58;;;;;;;3.53;1.15;;;;;;;;;;4984110;28;20044;-79
2022/02/06 10:58:31;;;;;;;4.78;1.15;;;;;;;;;;4996244;28;20127;-80
2022/02/06 11:00:57;;;;;;;4.18;1.10;;;;;;;;;;4996802;28;20299;-80
2022/02/06 11:03:31;;;;;;;10.48;1.58;;;;;;;;;;4999954;28;21634;-81
2022/02/06 11:06:07;;;;;;;4.32;0.93;;;;;;;;;;5002741;28;20040;-80
2022/02/06 11:08:34;;;;;;;4.03;1.08;;;;;;;;;;4985148;28;20040;-80
2022/02/06 11:11:07;;;;;;;1.63;0.70;;;;;;;;;;5012539;28;20103;-80
2022/02/06 11:13:33;;;;;;;2.55;0.80;;;;;;;;;;5005341;28;20069;-81
2022/02/06 11:16:08;;;;;;;5.78;0.85;;;;;;;;;;4984863;28;20557;-80
2022/02/06 11:18:43;;;;;;;3.80;0.90;;;;;;;;;;5001931;28;20042;-81
2022/02/06 11:21:09;;;;;;;3.60;1.05;;;;;;;;;;5019442;28;20511;-81
2022/02/06 11:23:38;;;;;;;1.60;0.60;;;;;;;;;;5003382;28;20072;-81
2022/02/06 11:26:05;;;;;;;3.72;0.52;;;;;;;;;;5017410;28;20508;-80
2022/02/06 11:28:30;;;;;;;2.72;0.63;;;;;;;;;;5014388;28;20446;-81
2022/02/06 11:30:56;;;;;;;2.78;0.52;;;;;;;;;;4967894;28;20041;-80
2022/02/06 11:33:22;;;;;;;2.60;0.60;;;;;;;;;;4999267;28;20049;-81
2022/02/06 11:35:55;;;;;;;4.25;1.10;;;;;;;;;;5015914;28;20100;-81
2022/02/06 11:44:30;;;;;;;10.80;7.00;;;;;;;;;;5051637;28;20040;-80
2022/02/06 11:47:26;;;;;;;14.52;6.70;;;;;;;;;;5024286;28;20040;-80
2022/02/06 11:49:54;;;;;;;8.50;5.88;;;;;;;;;;4997666;28;20072;-80
2022/02/06 11:52:20;;;;;;;11.15;6.70;;;;;;;;;;5012693;28;20087;-80
2022/02/06 11:54:57;;;;;;;10.65;6.03;;;;;;;;;;4983800;28;20037;-81
2022/02/06 11:57:27;;;;;;;12.18;6.35;;;;;;;;;;4982722;28;20056;-80
2022/02/06 12:00:05;;;;;;;11.45;6.10;;;;;;;;;;4982204;28;20057;-80
2022/02/06 12:02:37;;;;;;;9.93;5.57;;;;;;;;;;5012822;28;20519;-80
2022/02/06 12:05:09;;;;;;;6.97;4.82;;;;;;;;;;5002541;28;20044;-80
2022/02/06 12:07:53;;;;;;;8.32;4.80;;;;;;;;;;5036323;28;20033;-80
2022/02/06 12:10:21;;;;;;;8.07;4.90;;;;;;;;;;5034927;28;20049;-80
2022/02/06 12:12:50;;;;;;;7.22;4.63;;;;;;;;;;4998904;28;20060;-80
2022/02/06 12:15:29;;;;;;;7.88;4.78;;;;;;;;;;5034389;28;20501;-80
2022/02/06 12:18:08;;;;;;;8.75;5.22;;;;;;;;;;5003847;28;20398;-80
2022/02/06 12:20:51;;;;;;;7.05;4.07;;;;;;;;;;5032985;28;20082;-80
2022/02/06 12:23:42;;;;;;;7.05;3.90;;;;;;;;;;5003301;28;20104;-81
2022/02/06 12:26:32;;;;;;;8.25;3.95;;;;;;;;;;4996128;28;20041;-82
2022/02/06 12:29:04;;;;;;;6.15;3.75;;;;;;;;;;5018682;28;20471;-83
2022/02/06 12:31:31;;;;;;;6.07;3.28;;;;;;;;;;5018101;28;20033;-83
2022/02/06 12:37:07;;;;;;;5.57;3.22;;;;;;;;;;5025931;28;20618;-80
2022/02/06 12:39:34;;;;;;;6.07;3.65;;;;;;;;;;5019145;28;20104;-81
2022/02/06 12:42:00;;;;;;;7.18;4.03;;;;;;;;;;5025441;28;20038;-82
2022/02/06 12:44:27;;;;;;;6.38;3.13;;;;;;;;;;4981754;28;20060;-79
2022/02/06 12:47:06;;;;;;;7.07;2.90;;;;;;;;;;4986321;28;20125;-80
2022/02/06 12:49:35;;;;;;;6.40;2.92;;;;;;;;;;5012533;28;20045;-80
2022/02/06 12:52:03;;;;;;;5.75;3.10;;;;;;;;;;4997510;28;20046;-87
2022/02/06 12:54:28;;;;;;;5.88;3.03;;;;;;;;;;4982501;28;20044;-87
2022/02/06 12:56:58;;;;;;;4.90;2.10;;;;;;;;;;4998312;28;20404;-85
2022/02/06 12:59:25;;;;;;;6.32;2.88;;;;;;;;;;4971672;28;20154;-84
2022/02/06 13:01:50;;;;;;;6.40;2.40;;;;;;;;;;5001404;28;20036;-83
2022/02/06 13:04:17;;;;;;;6.18;2.35;;;;;;;;;;4998468;28;20030;-84
2022/02/06 13:06:44;;;;;;;6.90;2.80;;;;;;;;;;4970407;28;20092;-82
2022/02/06 13:09:30;;;;;;;8.23;3.10;;;;;;;;;;5030389;28;20504;-81
2022/02/06 13:12:06;;;;;;;5.45;3.15;;;;;;;;;;5013667;28;20468;-80
2022/02/06 13:18:05;;;;;;;7.55;3.40;;;;;;;;;;5012986;28;20029;-80
2022/02/06 13:20:41;;;;;;;4.93;3.50;;;;;;;;;;5022777;28;20024;-80
2022/02/06 13:33:46;;;;;;;5.60;3.53;;;;;;;;;;5025071;28;20860;-81
2022/02/06 13:38:51;;;;;;;7.15;3.58;;;;;;;;;;5053416;28;20033;-81
2022/02/06 13:41:18;;;;;;;5.37;2.87;;;;;;;;;;5013708;28;20052;-81
2022/02/06 13:43:44;;;;;;;9.20;3.42;;;;;;;;;;4992359;28;20038;-81
2022/02/06 13:46:14;;;;;;;5.47;3.03;;;;;;;;;;4997396;28;20095;-82
2022/02/06 13:48:40;;;;;;;5.88;3.08;;;;;;;;;;4974137;28;20033;-81
2022/02/06 13:51:08;;;;;;;6.45;2.55;;;;;;;;;;4980680;28;20040;-81
2022/02/06 13:53:35;;;;;;;6.43;2.60;;;;;;;;;;4999984;28;20573;-80
2022/02/06 13:56:03;;;;;;;8.63;2.92;;;;;;;;;;4987758;28;20382;-81
2022/02/06 13:58:31;;;;;;;6.68;1.98;;;;;;;;;;4965614;28;20149;-81
2022/02/06 14:00:59;;;;;;;4.90;2.60;;;;;;;;;;4972409;28;20136;-82
2022/02/06 14:03:43;;;;;;;5.18;2.47;;;;;;;;;;5013169;28;20029;-81
2022/02/06 14:06:09;;;;;;;5.72;2.50;;;;;;;;;;4999433;28;20503;-82
2022/02/06 14:08:37;;;;;;;6.35;2.03;;;;;;;;;;5017917;28;20025;-83
2022/02/06 14:11:08;;;;;;;4.47;2.28;;;;;;;;;;4995922;28;20060;-82
2022/02/06 14:13:34;;;;;;;5.07;1.88;;;;;;;;;;4986013;28;20034;-81
2022/02/06 14:16:10;;;;;;;4.78;1.38;;;;;;;;;;5001089;28;20099;-80
2022/02/06 14:18:48;;;;;;;5.10;1.65;;;;;;;;;;4969479;28;20029;-80
2022/02/06 14:21:13;;;;;;;5.53;2.00;;;;;;;;;;4985350;28;20467;-80
2022/02/06 14:23:39;;;;;;;4.22;1.88;;;;;;;;;;4984736;28;20121;-80
2022/02/06 14:26:15;;;;;;;5.20;1.70;;;;;;;;;;5003695;28;20041;-80
2022/02/06 14:28:49;;;;;;;5.35;1.85;;;;;;;;;;5012835;28;20033;-80
2022/02/06 14:31:22;;;;;;;4.85;2.00;;;;;;;;;;5000919;28;20140;-80
2022/02/06 14:33:48;;;;;;;4.05;1.50;;;;;;;;;;4983760;28;20026;-80
2022/02/06 14:36:17;;;;;;;5.10;1.60;;;;;;;;;;5000733;28;20096;-79
2022/02/06 14:38:57;;;;;;;5.93;1.30;;;;;;;;;;5017542;28;20049;-79
2022/02/06 14:41:46;;;;;;;5.65;1.52;;;;;;;;;;4999601;28;20447;-79
2022/02/06 14:44:15;;;;;;;6.18;1.33;;;;;;;;;;5012088;28;20077;-80
2022/02/06 14:46:40;;;;;;;4.97;1.42;;;;;;;;;;5017160;28;20074;-80
2022/02/06 14:49:07;;;;;;;6.63;1.98;;;;;;;;;;5017162;28;20116;-79
2022/02/06 14:51:36;;;;;;;5.57;1.33;;;;;;;;;;5017061;28;20044;-79
2022/02/06 14:54:05;;;;;;;4.45;1.50;;;;;;;;;;5000400;28;20060;-78
2022/02/06 14:56:33;;;;;;;6.63;1.45;;;;;;;;;;4999441;28;20104;-78
2022/02/06 14:58:59;;;;;;;6.07;1.40;;;;;;;;;;4989011;28;20032;-78
2022/02/06 15:01:24;;;;;;;4.82;1.50;;;;;;;;;;5004716;28;20112;-78
2022/02/06 15:03:49;;;;;;;8.35;2.05;;;;;;;;;;5006010;28;20040;-77
2022/02/06 15:06:15;;;;;;;5.45;1.63;;;;;;;;;;5033156;28;20067;-78
2022/02/06 15:08:40;;;;;;;3.63;1.50;;;;;;;;;;5032797;28;20415;-77
2022/02/06 15:11:06;;;;;;;6.93;1.60;;;;;;;;;;5015995;28;20068;-78
2022/02/06 15:13:33;;;;;;;5.18;1.50;;;;;;;;;;5033266;28;20103;-78
2022/02/06 15:16:06;;;;;;;4.65;1.27;;;;;;;;;;5032252;28;20043;-78
2022/02/06 15:18:39;;;;;;;4.45;1.10;;;;;;;;;;4988476;28;20033;-78
2022/02/06 15:21:07;;;;;;;5.45;1.30;;;;;;;;;;5007819;28;20121;-78
2022/02/06 15:23:33;;;;;;;4.97;0.95;;;;;;;;;;5016346;28;20033;-77
2022/02/06 15:25:58;;;;;;;4.65;1.35;;;;;;;;;;4999018;28;20044;-80
2022/02/06 15:28:24;;;;;;;5.43;1.60;;;;;;;;;;4983784;28;20060;-79
2022/02/06 15:30:50;;;;;;;7.57;2.55;;;;;;;;;;4999957;28;20116;-78
2022/02/06 15:33:21;;;;;;;5.00;1.23;;;;;;;;;;4999623;28;20033;-79
2022/02/06 15:35:47;;;;;;;7.22;1.13;;;;;;;;;;4999343;28;20030;-79
2022/02/06 15:38:12;;;;;;;5.65;1.48;;;;;;;;;;4999843;28;20037;-79
2022/02/06 15:40:38;;;;;;;9.90;1.30;;;;;;;;;;4999410;28;20041;-79
2022/02/06 15:43:05;;;;;;;4.97;1.40;;;;;;;;;;4995987;28;20411;-78
2022/02/06 15:45:30;;;;;;;4.78;1.42;;;;;;;;;;4999658;28;20380;-78
2022/02/06 15:47:56;;;;;;;7.50;1.33;;;;;;;;;;5033830;28;20048;-78
2022/02/06 15:50:21;;;;;;;5.40;1.58;;;;;;;;;;5018978;28;20438;-78
2022/02/06 15:52:47;;;;;;;6.10;2.55;;;;;;;;;;4998907;28;20064;-79
2022/02/06 15:55:12;;;;;;;7.18;1.70;;;;;;;;;;4991422;28;20123;-78
2022/02/06 15:57:37;;;;;;;5.70;1.10;;;;;;;;;;4999836;28;20033;-78
2022/02/06 16:00:04;;;;;;;5.28;1.23;;;;;;;;;;5004152;28;20567;-78
2022/02/06 16:02:30;;;;;;;7.45;1.20;;;;;;;;;;4999139;28;20034;-79
2022/02/06 16:04:55;;;;;;;6.05;1.42;;;;;;;;;;4999396;28;20542;-78
2022/02/06 16:07:21;;;;;;;7.18;1.40;;;;;;;;;;4999075;28;20084;-78
2022/02/06 16:09:46;;;;;;;5.22;1.15;;;;;;;;;;4999181;28;20037;-79
2022/02/06 16:12:12;;;;;;;6.05;1.58;;;;;;;;;;5015474;28;20136;-78
2022/02/06 16:14:42;;;;;;;9.75;1.25;;;;;;;;;;4997831;28;20065;-78
2022/02/06 16:17:08;;;;;;;9.90;1.40;;;;;;;;;;4983301;28;20558;-78
2022/02/06 16:19:33;;;;;;;6.60;1.42;;;;;;;;;;4999131;28;20483;-78
2022/02/06 16:22:05;;;;;;;5.30;1.50;;;;;;;;;;4998590;28;20050;-78
2022/02/06 16:24:32;;;;;;;5.30;1.00;;;;;;;;;;4999055;28;20041;-78
2022/02/06 16:26:58;;;;;;;3.97;1.85;;;;;;;;;;4998913;28;20503;-78
2022/02/06 16:29:25;;;;;;;7.97;1.50;;;;;;;;;;5001334;28;20045;-78
2022/02/06 16:31:51;;;;;;;5.85;1.40;;;;;;;;;;5035226;28;20029;-78
2022/02/06 16:34:16;;;;;;;9.80;1.75;;;;;;;;;;5014412;28;20068;-78
2022/02/06 16:36:42;;;;;;;8.98;2.08;;;;;;;;;;4982200;28;20527;-77
2022/02/06 16:39:07;;;;;;;5.63;1.92;;;;;;;;;;4985800;28;20044;-77
2022/02/06 16:41:33;;;;;;;7.63;1.23;;;;;;;;;;4998307;28;20112;-77
2022/02/06 16:43:58;;;;;;;7.47;2.38;;;;;;;;;;4998207;28;20076;-77
2022/02/06 16:46:25;;;;;;;10.88;3.80;;;;;;;;;;5018068;28;20041;-77
2022/02/06 16:48:50;;;;;;;12.90;4.25;;;;;;;;;;4976413;28;20030;-77
2022/02/06 16:51:16;;;;;;;10.57;3.40;;;;;;;;;;4981989;28;20030;-77
2022/02/06 16:53:45;;;;;;;12.88;4.47;;;;;;;;;;4982467;28;20048;-77
2022/02/06 16:56:11;;;;;;;35.85;11.30;;;;;;;;;;5015039;28;20061;-77
2022/02/06 16:58:36;;;;;;;51.17;16.50;;;;;;;;;;4982229;28;20116;-77
2022/02/06 17:01:02;;;;;;;32.47;10.35;;;;;;;;;;4997972;28;20034;-77
2022/02/06 17:03:27;;;;;;;23.10;7.65;;;;;;;;;;4999199;28;20045;-77
2022/02/06 17:05:53;;;;;;;21.15;8.40;;;;;;;;;;5012416;28;20120;-77
2022/02/06 17:08:18;;;;;;;18.52;6.68;;;;;;;;;;4982317;28;20117;-77
2022/02/06 17:10:45;;;;;;;18.63;7.97;;;;;;;;;;5006968;28;20565;-77
2022/02/06 17:13:12;;;;;;;17.30;6.85;;;;;;;;;;5012364;28;20054;-77
2022/02/06 17:15:37;;;;;;;21.52;7.10;;;;;;;;;;4997675;28;20407;-76
2022/02/06 17:18:03;;;;;;;36.45;11.55;;;;;;;;;;4981949;28;20041;-77
2022/02/06 17:20:28;;;;;;;28.85;8.00;;;;;;;;;;5003419;28;20029;-77
2022/02/06 17:22:54;;;;;;;26.65;8.43;;;;;;;;;;5017695;28;20041;-76
2022/02/06 17:25:19;;;;;;;23.50;7.10;;;;;;;;;;5001330;28;20065;-76